地図

経路データ

SID SEASON NUMBER BASIN SUBBASIN NAME ISO_TIME NATURE LAT LON WMO_WIND WMO_PRES WMO_AGENCY TRACK_TYPE DIST2LAND LANDFALL IFLAG USA_AGENCY USA_ATCF_ID USA_LAT USA_LON USA_RECORD USA_STATUS USA_WIND USA_PRES USA_SSHS USA_R34_NE USA_R34_SE USA_R34_SW USA_R34_NW USA_R50_NE USA_R50_SE USA_R50_SW USA_R50_NW USA_R64_NE USA_R64_SE USA_R64_SW USA_R64_NW USA_POCI USA_ROCI USA_RMW USA_EYE TOKYO_LAT TOKYO_LON TOKYO_GRADE TOKYO_WIND TOKYO_PRES TOKYO_R50_DIR TOKYO_R50_LONG TOKYO_R50_SHORT TOKYO_R30_DIR TOKYO_R30_LONG TOKYO_R30_SHORT TOKYO_LAND CMA_LAT CMA_LON CMA_CAT CMA_WIND CMA_PRES HKO_LAT HKO_LON HKO_CAT HKO_WIND HKO_PRES NEWDELHI_LAT NEWDELHI_LON NEWDELHI_GRADE NEWDELHI_WIND NEWDELHI_PRES NEWDELHI_CI NEWDELHI_DP NEWDELHI_POCI REUNION_LAT REUNION_LON REUNION_TYPE REUNION_WIND REUNION_PRES REUNION_TNUM REUNION_CI REUNION_RMW REUNION_R34_NE REUNION_R34_SE REUNION_R34_SW REUNION_R34_NW REUNION_R50_NE REUNION_R50_SE REUNION_R50_SW REUNION_R50_NW REUNION_R64_NE REUNION_R64_SE REUNION_R64_SW REUNION_R64_NW BOM_LAT BOM_LON BOM_TYPE BOM_WIND BOM_PRES BOM_TNUM BOM_CI BOM_RMW BOM_R34_NE BOM_R34_SE BOM_R34_SW BOM_R34_NW BOM_R50_NE BOM_R50_SE BOM_R50_SW BOM_R50_NW BOM_R64_NE BOM_R64_SE BOM_R64_SW BOM_R64_NW BOM_ROCI BOM_POCI BOM_EYE BOM_POS_METHOD BOM_PRES_METHOD NADI_LAT NADI_LON NADI_CAT NADI_WIND NADI_PRES WELLINGTON_LAT WELLINGTON_LON WELLINGTON_WIND WELLINGTON_PRES DS824_LAT DS824_LON DS824_STAGE DS824_WIND DS824_PRES TD9636_LAT TD9636_LON TD9636_STAGE TD9636_WIND TD9636_PRES TD9635_LAT TD9635_LON TD9635_WIND TD9635_PRES TD9635_ROCI NEUMANN_LAT NEUMANN_LON NEUMANN_CLASS NEUMANN_WIND NEUMANN_PRES MLC_LAT MLC_LON MLC_CLASS MLC_WIND MLC_PRES USA_GUST BOM_GUST BOM_GUST_PER REUNION_GUST REUNION_GUST_PER USA_SEAHGT USA_SEARAD_NE USA_SEARAD_SE USA_SEARAD_SW USA_SEARAD_NW STORM_SPEED STORM_DIR
1968164N21090 1968 33 NI BB NOT_NAMED 1968-06-11 18:00:00 TS 21.1000 89.7000 main 73 49 O________O____ jtwc_io IO021968 21.1000 89.7000 -1 21.1000 89.7000 TC 3 340
1968164N21090 1968 33 NI BB NOT_NAMED 1968-06-11 21:00:00 TS 21.2625 89.6400 main 49 39 P________P____ IO021968 21.2625 89.6400 -1 21.2625 89.6400 TC 3 343
1968164N21090 1968 33 NI BB NOT_NAMED 1968-06-12 00:00:00 TS 21.4000 89.6000 main 39 30 O________O____ jtwc_io IO021968 21.4000 89.6000 -1 21.4000 89.6000 TC 25 2 351
1968164N21090 1968 33 NI BB NOT_NAMED 1968-06-12 03:00:00 TS 21.5000 89.5933 main 30 23 P________PO___ IO021968 21.5000 89.5925 -1 21.5000 89.5925 TC 25 21.5000 89.6000 1 2 3
1968164N21090 1968 33 NI BB NOT_NAMED 1968-06-12 06:00:00 TS 21.6053 89.6015 main 23 15 O________OP___ jtwc_io IO021968 21.6000 89.6000 -1 21.6000 89.6000 TC 25 21.6266 89.6078 1 3 0
1968164N21090 1968 33 NI BB NOT_NAMED 1968-06-12 09:00:00 TS 21.7507 89.6034 main 10 0 P________PP___ IO021968 21.7500 89.6000 -1 21.7500 89.6000 TC 25 21.7525 89.6124 1 3 5
1968164N21090 1968 33 NI BB NOT_NAMED 1968-06-12 12:00:00 TS 21.8924 89.6036 main 0 0 O________OP___ jtwc_io IO021968 21.9000 89.6000 -1 21.9000 89.6000 TC 25 21.8772 89.6109 1 3 5
1968164N21090 1968 33 NI BB NOT_NAMED 1968-06-12 15:00:00 TS 22.0000 89.6050 main 0 0 P________PO___ IO021968 22.0000 89.6075 -1 22.0000 89.6075 TC 25 22.0000 89.6000 1 2 0
1968164N21090 1968 33 NI BB NOT_NAMED 1968-06-12 18:00:00 TS 22.1070 89.5927 main 0 0 O________OP___ jtwc_io IO021968 22.1000 89.6000 -1 22.1000 89.6000 TC 25 22.1209 89.5782 1 3 348
1968164N21090 1968 33 NI BB NOT_NAMED 1968-06-12 21:00:00 TS 22.2475 89.5500 main 0 0 P________PP___ IO021968 22.2500 89.5500 -1 22.2500 89.5500 TC 25 22.2425 89.5501 1 3 344
1968164N21090 1968 33 NI BB NOT_NAMED 1968-06-13 00:00:00 TS 22.3893 89.5073 main 0 0 O________OP___ jtwc_io IO021968 22.4000 89.5000 -1 22.4000 89.5000 TC 25 22.3678 89.5219 1 3 347
1968164N21090 1968 33 NI BB NOT_NAMED 1968-06-13 03:00:00 TS 22.5000 89.4950 main 0 0 P________PO___ IO021968 22.5000 89.4925 -1 22.5000 89.4925 TC 25 22.5000 89.5000 1 2 0
1968164N21090 1968 33 NI BB NOT_NAMED 1968-06-13 06:00:00 TS 22.6143 89.4976 main 0 0 O________OP___ jtwc_io IO021968 22.6000 89.5000 -1 22.6000 89.5000 TC 25 22.6428 89.4928 1 3 3
1968164N21090 1968 33 NI BB NOT_NAMED 1968-06-13 09:00:00 TS 22.7592 89.4975 main 0 0 P________PP___ IO021968 22.7425 89.5000 -1 22.7425 89.5000 TC 25 22.7925 89.4925 1 3 2
1968164N21090 1968 33 NI BB NOT_NAMED 1968-06-13 12:00:00 TS 22.9153 89.4986 main 0 0 O________OP___ jtwc_io IO021968 22.9000 89.5000 -1 22.9000 89.5000 TC 25 22.9459 89.4959 1 3 0
1968164N21090 1968 33 NI BB NOT_NAMED 1968-06-13 15:00:00 TS 23.0667 89.5000 main 0 0 P________PO___ IO021968 23.0500 89.5000 -1 23.0500 89.5000 TC 25 23.1000 89.5000 1 3 5
1968164N21090 1968 33 NI BB NOT_NAMED 1968-06-13 18:00:00 TS 23.2180 89.5000 main 0 0 O________OP___ jtwc_io IO021968 23.2000 89.5000 -1 23.2000 89.5000 TC 25 23.2541 89.5000 1 3 0
1968164N21090 1968 33 NI BB NOT_NAMED 1968-06-13 21:00:00 TS 23.3692 89.5000 main 0 0 P________PP___ IO021968 23.3500 89.5000 -1 23.3500 89.5000 TC 25 23.4075 89.5000 1 3 2
1968164N21090 1968 33 NI BB NOT_NAMED 1968-06-14 00:00:00 TS 23.5191 89.5000 main 0 0 O________OP___ jtwc_io IO021968 23.5000 89.5000 -1 23.5000 89.5000 TC 25 23.5572 89.5000 1 3 5
1968164N21090 1968 33 NI BB NOT_NAMED 1968-06-14 03:00:00 TS 23.6667 89.5000 main 0 0 P________PO___ IO021968 23.6500 89.5000 -1 23.6500 89.5000 TC 25 23.7000 89.5000 1 3 0
1968164N21090 1968 33 NI BB NOT_NAMED 1968-06-14 06:00:00 TS 23.8135 89.5000 main 0 0 O________OP___ jtwc_io IO021968 23.8000 89.5000 -1 23.8000 89.5000 TC 25 23.8338 89.5000 1 3 3
1968164N21090 1968 33 NI BB NOT_NAMED 1968-06-14 09:00:00 TS 23.9543 89.5000 main 0 0 P________PP___ IO021968 23.9500 89.5000 -1 23.9500 89.5000 TC 25 23.9600 89.5000 1 3 0
1968164N21090 1968 33 NI BB NOT_NAMED 1968-06-14 12:00:00 TS 24.0906 89.5000 main 0 0 O________OP___ jtwc_io IO021968 24.1000 89.5000 -1 24.1000 89.5000 TC 25 24.0813 89.5000 1 2 6
1968164N21090 1968 33 NI BB NOT_NAMED 1968-06-14 15:00:00 NR 24.2000 89.5000 main 0 __________O___ IO021968 -1 TC 24.2000 89.5000 1 2 12

IBTrACS Databaseについて

本データベースは、米国NOAAが公開する1842年以降の世界の熱帯低気圧のベストトラックデータアーカイブInternational Best Track Archive for Climate Stewardship (IBTrACS)を、ウェブで閲覧しやすい形式に変換したものです。

最終更新日:2021-10-08